Time;durP1;ratioP1;P1;durP2;ratioP2;P2;SDS_P1;SDS_P2;PMS_P1;PMS_P2;Temp;Humidity;BMP_temperature;BMP_pressure;BME280_temperature;BME280_humidity;BME280_pressure;Samples;Min_cycle;Max_cycle;Signal;HPM_P1;HPM_P2
2022/08/10 00:01:35;;;;;;;10.33;6.30;;;19.30;64.60;;;;;;5039471;28;20548;-48
2022/08/10 00:04:02;;;;;;;10.43;5.77;;;19.30;65.00;;;;;;5037243;28;20484;-48
2022/08/10 00:06:29;;;;;;;8.20;4.77;;;19.30;65.20;;;;;;5037301;28;20479;-48
2022/08/10 00:08:55;;;;;;;12.83;7.70;;;19.30;65.00;;;;;;5046140;28;20491;-48
2022/08/10 00:11:22;;;;;;;13.10;7.70;;;19.30;64.60;;;;;;5032344;28;20486;-47
2022/08/10 00:13:49;;;;;;;13.53;8.40;;;19.30;65.60;;;;;;5034186;28;20540;-47
2022/08/10 00:16:16;;;;;;;7.73;5.40;;;19.20;65.30;;;;;;5028816;28;20888;-48
2022/08/10 00:18:44;;;;;;;17.90;10.33;;;19.20;65.60;;;;;;5033987;28;20484;-48
2022/08/10 00:21:11;;;;;;;8.90;6.47;;;19.10;65.70;;;;;;5030745;28;21008;-48
2022/08/10 00:23:38;;;;;;;20.73;7.90;;;19.10;65.80;;;;;;5037156;28;20488;-48
2022/08/10 00:26:06;;;;;;;9.27;6.83;;;19.10;65.70;;;;;;5026296;28;20494;-48
2022/08/10 00:28:33;;;;;;;14.13;8.63;;;19.00;65.60;;;;;;5028168;28;20846;-48
2022/08/10 00:30:59;;;;;;;33.80;6.00;;;19.00;66.10;;;;;;5034187;28;20487;-48
2022/08/10 00:33:26;;;;;;;7.93;5.87;;;19.00;66.30;;;;;;5028792;28;20486;-47
2022/08/10 00:35:54;;;;;;;10.23;7.43;;;18.90;66.10;;;;;;5030361;28;20876;-48
2022/08/10 00:38:21;;;;;;;8.27;5.87;;;18.80;65.70;;;;;;5038853;28;20488;-48
2022/08/10 00:40:48;;;;;;;12.53;9.43;;;18.80;65.80;;;;;;5032757;28;20487;-48
2022/08/10 00:43:15;;;;;;;5.70;5.10;;;18.80;66.30;;;;;;5015606;28;20608;-48
2022/08/10 00:45:41;;;;;;;31.63;6.43;;;18.70;66.90;;;;;;5004933;28;20496;-48
2022/08/10 00:48:08;;;;;;;9.67;7.27;;;18.70;67.70;;;;;;5007741;28;20503;-47
2022/08/10 00:50:35;;;;;;;7.00;5.93;;;18.50;67.10;;;;;;5021124;28;20480;-48
2022/08/10 00:53:03;;;;;;;5.90;5.40;;;18.40;67.10;;;;;;5011139;28;20912;-47
2022/08/10 00:55:30;;;;;;;7.43;5.17;;;18.30;66.90;;;;;;5007239;28;20468;-48
2022/08/10 00:57:57;;;;;;;8.57;6.47;;;18.30;67.30;;;;;;5008069;28;20896;-47
2022/08/10 01:00:24;;;;;;;5.87;5.13;;;18.30;67.90;;;;;;5012087;28;20486;-48
2022/08/10 01:02:51;;;;;;;9.47;7.80;;;18.20;68.40;;;;;;5017581;28;20908;-47
2022/08/10 01:05:19;;;;;;;6.90;5.60;;;18.10;68.40;;;;;;5008556;28;20970;-48
2022/08/10 01:08:15;;;;;;;10.30;7.10;;;18.00;69.10;;;;;;5015563;28;20506;-48
2022/08/10 01:10:50;;;;;;;11.67;9.23;;;18.00;69.30;;;;;;5015641;28;20472;-47
2022/08/10 01:13:22;;;;;;;12.73;7.17;;;17.90;69.10;;;;;;5012817;28;20950;-48
2022/08/10 01:15:56;;;;;;;16.23;9.50;;;17.80;69.10;;;;;;5007107;28;20566;-48
2022/08/10 01:18:31;;;;;;;17.20;6.10;;;17.80;68.70;;;;;;5028721;28;20489;-47
2022/08/10 01:21:22;;;;;;;6.33;5.70;;;17.90;68.40;;;;;;5004549;28;20480;-46
2022/08/10 01:24:05;;;;;;;16.27;9.80;;;17.80;70.10;;;;;;5019190;28;20489;-48
2022/08/10 01:26:46;;;;;;;6.10;5.50;;;17.70;69.60;;;;;;5031451;28;20477;-48
2022/08/10 01:29:51;;;;;;;8.77;7.07;;;17.60;69.90;;;;;;5006688;28;20473;-48
2022/08/10 01:32:30;;;;;;;13.87;7.87;;;17.60;69.20;;;;;;5020839;28;20531;-48
2022/08/10 01:35:05;;;;;;;7.73;6.57;;;17.60;69.70;;;;;;5009719;28;20511;-48
2022/08/10 01:37:38;;;;;;;7.30;5.80;;;17.60;69.90;;;;;;5017236;28;20495;-48
2022/08/10 01:40:08;;;;;;;11.73;5.60;;;17.50;69.70;;;;;;5032124;28;20889;-48
2022/08/10 01:42:37;;;;;;;15.80;6.57;;;17.40;70.30;;;;;;5019521;28;20497;-48
2022/08/10 01:45:07;;;;;;;22.73;6.30;;;17.20;70.30;;;;;;5009926;28;20485;-48
2022/08/10 01:50:29;;;;;;;5.50;4.90;;;17.00;71.20;;;;;;5029362;28;20488;-48
2022/08/10 01:53:01;;;;;;;35.30;7.87;;;16.80;71.70;;;;;;5020907;28;20491;-47
2022/08/10 01:55:30;;;;;;;5.03;4.30;;;16.70;71.50;;;;;;5029388;28;20871;-48
2022/08/10 01:57:57;;;;;;;10.70;7.63;;;16.70;71.30;;;;;;5025674;28;20481;-48
2022/08/10 02:00:25;;;;;;;11.83;5.30;;;16.60;71.30;;;;;;5026240;28;21174;-47
2022/08/10 02:02:54;;;;;;;22.83;9.90;;;16.60;71.00;;;;;;5019799;28;20484;-47
2022/08/10 02:05:23;;;;;;;6.03;5.40;;;;;;;;;;5034227;28;21003;-48
2022/08/10 02:07:51;;;;;;;9.80;7.57;;;16.60;72.00;;;;;;5029803;28;20491;-48
2022/08/10 02:10:21;;;;;;;15.10;6.20;;;16.60;72.40;;;;;;5028498;28;20479;-48
2022/08/10 02:12:49;;;;;;;23.70;11.57;;;16.40;73.00;;;;;;5009011;28;20582;-47
2022/08/10 02:15:19;;;;;;;9.47;7.10;;;16.40;72.80;;;;;;5021023;28;20481;-48
2022/08/10 02:17:50;;;;;;;12.97;9.60;;;16.20;73.30;;;;;;5011781;28;20619;-48
2022/08/10 02:20:23;;;;;;;16.93;6.60;;;16.10;73.10;;;;;;5019326;28;20481;-47
2022/08/10 02:22:54;;;;;;;15.67;9.73;;;16.00;73.70;;;;;;5018226;28;20973;-47
2022/08/10 02:25:24;;;;;;;9.50;6.70;;;15.90;73.50;;;;;;4999992;28;20480;-47
2022/08/10 02:27:52;;;;;;;14.87;10.30;;;15.90;73.30;;;;;;5006991;28;20520;-47
2022/08/10 02:30:20;;;;;;;18.83;8.10;;;16.00;73.10;;;;;;5015393;28;21013;-47
2022/08/10 02:32:49;;;;;;;39.27;10.27;;;16.00;73.30;;;;;;5015516;28;20487;-48
2022/08/10 02:35:17;;;;;;;9.20;7.27;;;15.90;73.90;;;;;;5008530;28;22076;-47
2022/08/10 02:37:47;;;;;;;12.50;8.90;;;15.90;74.20;;;;;;5015350;28;20504;-47
2022/08/10 02:40:15;;;;;;;16.73;5.50;;;15.70;74.60;;;;;;5013299;28;20490;-49
2022/08/10 02:42:46;;;;;;;16.23;9.60;;;15.70;74.40;;;;;;5012663;28;20546;-46
2022/08/10 02:45:17;;;;;;;11.67;8.00;;;15.60;74.30;;;;;;5017224;28;20485;-47
2022/08/10 02:47:48;;;;;;;14.57;9.70;;;15.60;74.60;;;;;;5018871;28;20830;-47
2022/08/10 02:50:22;;;;;;;13.43;9.43;;;15.60;74.60;;;;;;5013082;28;20933;-46
2022/08/10 02:52:54;;;;;;;17.33;9.17;;;15.60;74.90;;;;;;5015548;28;20484;-47
2022/08/10 02:55:26;;;;;;;12.03;8.03;;;15.60;74.80;;;;;;5018527;28;20522;-46
2022/08/10 02:57:58;;;;;;;13.30;9.53;;;15.60;73.90;;;;;;5014181;28;20488;-46
2022/08/10 03:00:26;;;;;;;12.40;8.50;;;15.60;73.80;;;;;;4991901;28;20475;-46
2022/08/10 03:02:55;;;;;;;15.60;10.70;;;15.70;73.60;;;;;;5021564;28;20542;-46
2022/08/10 03:05:22;;;;;;;7.83;6.23;;;15.70;74.00;;;;;;4994148;28;20629;-47
2022/08/10 03:07:53;;;;;;;14.43;9.40;;;15.60;74.00;;;;;;5005754;28;21228;-47
2022/08/10 03:10:23;;;;;;;12.30;8.30;;;15.60;74.20;;;;;;5012713;28;20475;-46
2022/08/10 03:12:51;;;;;;;21.10;9.17;;;15.50;74.40;;;;;;5016467;28;21183;-47
2022/08/10 03:15:20;;;;;;;8.50;6.60;;;15.40;73.90;;;;;;4994374;28;20480;-46
2022/08/10 03:17:48;;;;;;;12.33;9.53;;;15.40;74.30;;;;;;5024596;28;20483;-46
2022/08/10 03:20:17;;;;;;;20.50;8.23;;;15.40;74.70;;;;;;5018678;28;20484;-46
2022/08/10 03:22:45;;;;;;;11.60;8.90;;;15.40;74.80;;;;;;5009394;28;20479;-46
2022/08/10 03:25:14;;;;;;;7.70;6.27;;;15.40;74.30;;;;;;5014387;28;20503;-47
2022/08/10 03:27:43;;;;;;;11.60;8.47;;;15.50;74.40;;;;;;5039016;28;20510;-47
2022/08/10 03:30:11;;;;;;;8.87;6.93;;;15.40;75.00;;;;;;4991362;28;20500;-46
2022/08/10 03:32:39;;;;;;;19.30;8.40;;;15.30;74.80;;;;;;4989131;28;20475;-47
2022/08/10 03:35:07;;;;;;;7.20;6.43;;;15.30;74.90;;;;;;5025057;28;20541;-46
2022/08/10 03:37:34;;;;;;;10.90;7.80;;;15.30;75.20;;;;;;5011038;28;20872;-47
2022/08/10 03:40:01;;;;;;;12.13;9.00;;;15.30;74.60;;;;;;5054556;28;20529;-47
2022/08/10 03:42:31;;;;;;;11.33;8.80;;;15.30;75.30;;;;;;5029708;28;20843;-46
2022/08/10 03:44:58;;;;;;;10.20;8.43;;;15.20;75.60;;;;;;4997653;28;20484;-47
2022/08/10 03:47:28;;;;;;;17.73;7.00;;;15.10;75.50;;;;;;5004030;28;20485;-47
2022/08/10 03:49:56;;;;;;;11.00;9.57;;;15.10;75.70;;;;;;5027592;28;21075;-47
2022/08/10 03:52:24;;;;;;;14.30;9.50;;;15.10;75.80;;;;;;5019585;28;20554;-47
2022/08/10 03:54:51;;;;;;;19.07;8.90;;;15.10;75.50;;;;;;5009136;28;20541;-47
2022/08/10 03:57:18;;;;;;;10.50;7.77;;;15.20;75.40;;;;;;5025108;28;20476;-47
2022/08/10 03:59:46;;;;;;;17.93;11.67;;;15.20;75.90;;;;;;5014386;28;20484;-47
2022/08/10 04:02:14;;;;;;;17.73;7.67;;;15.20;74.30;;;;;;5003596;28;21040;-47
2022/08/10 04:04:41;;;;;;;14.17;10.00;;;15.10;75.90;;;;;;5006315;28;20481;-47
2022/08/10 04:07:08;;;;;;;9.17;6.97;;;15.10;76.00;;;;;;5004423;28;20908;-46
2022/08/10 04:09:38;;;;;;;17.60;7.10;;;15.10;75.40;;;;;;5024626;28;20522;-45
2022/08/10 04:12:05;;;;;;;7.47;6.30;;;;;;;;;;5032126;28;21141;-49
2022/08/10 04:14:33;;;;;;;15.03;8.77;;;;;;;;;;5027952;28;20488;-47
2022/08/10 04:17:01;;;;;;;8.03;7.20;;;14.90;77.10;;;;;;5033311;28;20857;-46
2022/08/10 04:19:29;;;;;;;11.80;8.27;;;14.80;76.90;;;;;;5037721;28;20475;-46
2022/08/10 04:22:04;;;;;;;17.07;8.30;;;14.70;76.80;;;;;;5031735;28;21000;-47
2022/08/10 04:24:33;;;;;;;10.17;7.80;;;14.70;76.90;;;;;;5024847;28;20552;-47
2022/08/10 04:27:00;;;;;;;13.03;8.90;;;14.70;77.10;;;;;;5037689;28;20533;-46
2022/08/10 04:29:27;;;;;;;24.70;7.90;;;14.80;76.60;;;;;;5024986;28;20586;-47
2022/08/10 04:31:54;;;;;;;19.43;12.33;;;14.80;77.10;;;;;;5027919;28;20613;-47
2022/08/10 04:34:23;;;;;;;11.10;7.87;;;14.70;77.30;;;;;;5024990;28;20480;-47
2022/08/10 04:36:52;;;;;;;21.73;8.87;;;14.80;77.10;;;;;;5023833;28;20782;-51
2022/08/10 04:39:19;;;;;;;11.60;8.27;;;14.80;77.50;;;;;;5024782;28;21093;-46
2022/08/10 04:41:47;;;;;;;20.80;12.10;;;14.80;76.90;;;;;;5010426;28;20491;-46
2022/08/10 04:44:14;;;;;;;24.20;8.30;;;14.80;77.10;;;;;;5004746;28;20986;-46
2022/08/10 04:46:41;;;;;;;18.37;11.40;;;14.90;77.10;;;;;;5010065;28;20840;-47
2022/08/10 04:49:07;;;;;;;10.13;7.43;;;14.90;77.10;;;;;;5007476;28;20500;-45
2022/08/10 04:51:36;;;;;;;21.53;7.40;;;15.00;77.00;;;;;;5025463;28;20487;-46
2022/08/10 04:54:02;;;;;;;16.77;10.43;;;15.00;76.80;;;;;;5019185;28;20492;-47
2022/08/10 04:56:29;;;;;;;19.83;9.10;;;15.10;76.80;;;;;;5041645;28;20479;-47
2022/08/10 04:58:56;;;;;;;27.93;9.63;;;15.20;76.40;;;;;;5030246;28;20516;-47
2022/08/10 05:01:23;;;;;;;13.27;8.67;;;15.30;76.20;;;;;;5031317;28;20481;-49
2022/08/10 05:03:49;;;;;;;27.30;13.47;;;15.40;76.10;;;;;;5024382;28;20550;-46
2022/08/10 05:06:16;;;;;;;20.57;8.27;;;15.30;76.50;;;;;;5027462;28;20480;-47
2022/08/10 05:08:44;;;;;;;19.80;10.70;;;15.30;77.10;;;;;;5036348;28;20526;-47
2022/08/10 05:11:11;;;;;;;12.83;8.03;;;15.30;76.90;;;;;;5035403;28;20507;-47
2022/08/10 05:13:38;;;;;;;17.80;8.00;;;15.30;77.90;;;;;;5030232;28;20472;-47
2022/08/10 05:16:05;;;;;;;11.60;8.10;;;15.30;78.10;;;;;;5031224;28;21068;-47
2022/08/10 05:18:31;;;;;;;13.23;7.90;;;15.40;78.30;;;;;;5033936;28;21057;-47
2022/08/10 05:20:58;;;;;;;26.00;8.83;;;15.50;78.30;;;;;;5024696;28;20487;-47
2022/08/10 05:23:25;;;;;;;18.47;10.27;;;15.60;78.10;;;;;;5042604;28;20554;-47
2022/08/10 05:25:53;;;;;;;27.50;14.23;;;15.80;77.90;;;;;;5030804;28;20930;-47
2022/08/10 05:28:19;;;;;;;19.23;7.93;;;16.00;77.80;;;;;;5038401;28;20491;-47
2022/08/10 05:30:46;;;;;;;24.63;12.37;;;16.20;77.90;;;;;;5018403;28;20546;-47
2022/08/10 05:33:13;;;;;;;15.07;9.30;;;16.30;77.30;;;;;;5020759;28;21007;-47
2022/08/10 05:35:40;;;;;;;21.80;10.37;;;16.50;77.20;;;;;;5006797;28;20507;-47
2022/08/10 05:38:10;;;;;;;10.83;7.77;;;16.60;77.10;;;;;;5021864;28;20910;-47
2022/08/10 05:40:39;;;;;;;16.67;7.83;;;;;;;;;;5034582;28;20499;-48
2022/08/10 05:43:08;;;;;;;11.97;7.80;;;17.00;76.60;;;;;;5036882;28;20497;-48
2022/08/10 05:45:35;;;;;;;11.77;7.60;;;17.10;76.60;;;;;;5034311;28;20538;-48
2022/08/10 05:48:01;;;;;;;13.43;8.67;;;17.30;76.80;;;;;;5033109;28;20537;-48
2022/08/10 05:50:30;;;;;;;15.53;8.40;;;17.50;76.70;;;;;;5041521;28;20479;-49
2022/08/10 05:52:57;;;;;;;19.03;10.73;;;17.60;76.40;;;;;;5037647;28;20476;-47
2022/08/10 05:55:24;;;;;;;18.00;7.70;;;17.80;76.20;;;;;;5029778;28;20988;-48
2022/08/10 05:57:51;;;;;;;21.13;12.30;;;18.00;75.90;;;;;;5040425;28;20491;-48
2022/08/10 06:00:23;;;;;;;16.80;10.17;;;18.10;75.60;;;;;;5033810;28;20519;-48
2022/08/10 06:02:52;;;;;;;17.40;10.60;;;18.30;74.60;;;;;;5020231;28;20546;-48
2022/08/10 06:05:21;;;;;;;16.70;6.97;;;18.50;74.60;;;;;;5018233;28;20487;-48
2022/08/10 06:07:51;;;;;;;36.63;12.93;;;18.70;74.00;;;;;;5018928;28;20991;-48
2022/08/10 06:10:20;;;;;;;20.43;6.77;;;18.90;74.00;;;;;;5006772;28;20944;-48
2022/08/10 06:14:59;;;;;;;14.17;9.70;;;19.00;73.00;;;;;;5016700;28;21038;-48
2022/08/10 06:15:35;;;;;;;14.87;6.53;;;19.30;72.90;;;;;;5004740;28;20471;-48
2022/08/10 06:18:03;;;;;;;16.83;7.33;;;19.50;72.90;;;;;;5009499;28;21090;-48
2022/08/10 06:20:30;;;;;;;13.30;8.70;;;19.70;71.90;;;;;;5026704;28;20985;-49
2022/08/10 06:22:58;;;;;;;26.27;8.93;;;19.90;70.90;;;;;;5010095;28;20885;-48
2022/08/10 06:25:26;;;;;;;10.70;6.20;;;20.10;70.70;;;;;;5010284;28;20527;-48
2022/08/10 06:27:53;;;;;;;19.23;11.50;;;;;;;;;;5015242;28;20478;-48
2022/08/10 06:30:21;;;;;;;12.70;8.40;;;20.40;68.90;;;;;;5020607;28;20483;-47
2022/08/10 06:32:52;;;;;;;18.23;10.70;;;20.60;68.50;;;;;;5031343;28;20472;-48
2022/08/10 06:35:19;;;;;;;13.93;7.73;;;20.80;68.10;;;;;;5031610;28;20531;-47
2022/08/10 06:37:48;;;;;;;21.53;11.03;;;21.00;67.20;;;;;;5027518;28;20542;-47
2022/08/10 06:40:15;;;;;;;10.50;6.60;;;21.20;67.50;;;;;;5036708;28;21016;-47
2022/08/10 06:42:46;;;;;;;36.93;8.10;;;19.80;64.60;;;;;;5023792;28;20501;-48
2022/08/10 06:45:16;;;;;;;13.47;7.00;;;21.70;65.90;;;;;;5032506;28;20549;-48
2022/08/10 06:47:47;;;;;;;18.80;11.03;;;21.90;65.40;;;;;;5023891;28;21846;-48
2022/08/10 06:50:20;;;;;;;18.33;6.60;;;22.20;65.30;;;;;;5028384;28;20483;-48
2022/08/10 06:52:49;;;;;;;15.90;10.83;;;22.40;64.90;;;;;;5030064;28;20493;-48
2022/08/10 06:55:18;;;;;;;13.60;6.97;;;22.70;64.80;;;;;;5035343;28;20849;-49
2022/08/10 06:57:46;;;;;;;24.13;10.17;;;23.00;63.90;;;;;;5029238;28;20488;-48
2022/08/10 07:00:15;;;;;;;15.23;7.77;;;23.30;63.80;;;;;;5038097;28;20776;-48
2022/08/10 07:02:46;;;;;;;36.57;7.90;;;23.60;63.10;;;;;;5029868;28;21757;-48
2022/08/10 07:05:19;;;;;;;7.43;3.97;;;23.90;62.50;;;;;;5034969;28;20545;-48
2022/08/10 07:07:47;;;;;;;11.70;8.67;;;;;;;;;;5034513;28;20482;-48
2022/08/10 07:10:18;;;;;;;17.50;5.60;;;24.40;60.70;;;;;;5030672;28;20490;-49
2022/08/10 07:12:47;;;;;;;9.97;7.33;;;24.60;60.70;;;;;;5019626;28;20488;-48
2022/08/10 07:15:16;;;;;;;17.43;6.07;;;24.90;60.00;;;;;;5040641;28;20784;-49
2022/08/10 07:17:44;;;;;;;25.97;8.67;;;25.10;59.10;;;;;;5028869;28;20483;-48
2022/08/10 07:20:17;;;;;;;8.67;5.93;;;25.30;59.00;;;;;;5029076;28;20492;-48
2022/08/10 07:22:47;;;;;;;26.47;10.10;;;25.40;58.40;;;;;;5028528;28;20871;-49
2022/08/10 07:25:17;;;;;;;5.60;5.10;;;25.50;57.80;;;;;;5038253;28;20530;-49
2022/08/10 07:27:45;;;;;;;15.30;9.27;;;;;;;;;;5027875;28;20476;-48
2022/08/10 07:30:12;;;;;;;7.67;5.10;;;25.90;57.70;;;;;;5038838;28;20515;-49
2022/08/10 07:32:42;;;;;;;10.53;6.53;;;25.90;57.20;;;;;;5029393;28;20637;-49
2022/08/10 07:35:13;;;;;;;11.97;5.93;;;26.10;56.80;;;;;;5031040;28;20861;-48
2022/08/10 07:37:45;;;;;;;8.77;6.23;;;26.30;57.10;;;;;;5026503;28;20481;-49
2022/08/10 07:40:14;;;;;;;5.20;4.60;;;26.40;56.90;;;;;;5035224;28;20483;-49
2022/08/10 07:42:43;;;;;;;18.23;8.40;;;26.60;56.30;;;;;;5031149;28;20487;-49
2022/08/10 07:45:11;;;;;;;7.53;6.40;;;26.70;56.40;;;;;;5033540;28;20561;-48
2022/08/10 07:47:46;;;;;;;9.60;6.47;;;26.80;56.20;;;;;;5030007;28;20485;-49
2022/08/10 07:50:16;;;;;;;7.30;6.00;;;27.00;56.40;;;;;;5026413;28;20480;-48
2022/08/10 07:52:47;;;;;;;12.30;7.13;;;27.10;55.60;;;;;;5032860;28;20480;-49
2022/08/10 07:55:18;;;;;;;13.63;4.40;;;27.30;55.40;;;;;;5027858;28;20485;-47
2022/08/10 07:57:48;;;;;;;12.90;8.20;;;27.40;55.20;;;;;;5028601;28;21606;-49
2022/08/10 08:00:16;;;;;;;5.50;4.67;;;27.50;55.00;;;;;;5030158;28;20610;-49
2022/08/10 08:02:48;;;;;;;13.90;7.90;;;27.70;54.60;;;;;;5033178;28;20663;-50
2022/08/10 08:05:15;;;;;;;5.40;4.70;;;27.90;55.10;;;;;;5033186;28;20476;-50
2022/08/10 08:07:45;;;;;;;21.30;6.87;;;28.00;54.40;;;;;;5009074;28;20977;-51
2022/08/10 08:10:15;;;;;;;6.23;5.03;;;28.10;54.60;;;;;;5016134;28;20502;-52
2022/08/10 08:12:44;;;;;;;10.43;7.97;;;28.20;53.70;;;;;;5015188;28;20567;-51
2022/08/10 08:15:13;;;;;;;23.00;4.93;;;28.40;54.00;;;;;;5008528;28;20512;-52
2022/08/10 08:17:41;;;;;;;6.63;4.90;;;28.60;54.10;;;;;;5020640;28;21247;-53
2022/08/10 08:20:10;;;;;;;9.10;4.30;;;28.70;51.70;;;;;;5022292;28;20895;-51
2022/08/10 08:22:37;;;;;;;17.33;4.90;;;28.50;51.70;;;;;;5006827;28;20860;-52
2022/08/10 08:25:07;;;;;;;4.97;4.50;;;28.60;52.60;;;;;;4995566;28;20492;-51
2022/08/10 08:27:35;;;;;;;6.73;5.37;;;;;;;;;;4998249;28;20476;-52
2022/08/10 08:30:02;;;;;;;6.13;4.20;;;28.60;49.80;;;;;;4998056;28;20869;-51
2022/08/10 08:32:31;;;;;;;9.20;5.10;;;28.90;51.40;;;;;;4994527;28;20582;-52
2022/08/10 08:35:02;;;;;;;4.83;4.40;;;28.80;50.10;;;;;;4977971;28;20493;-51
2022/08/10 08:37:32;;;;;;;12.10;4.50;;;28.70;50.20;;;;;;4999082;28;20484;-53
2022/08/10 08:39:58;;;;;;;5.50;4.93;;;28.90;51.80;;;;;;5006878;28;21510;-53
2022/08/10 08:42:44;;;;;;;7.43;5.33;;;29.20;50.90;;;;;;5003305;28;20496;-52
2022/08/10 08:45:24;;;;;;;4.80;3.97;;;29.30;49.40;;;;;;4989405;28;20531;-52
2022/08/10 08:48:24;;;;;;;5.60;4.37;;;29.40;49.40;;;;;;4995994;28;20454;-52
2022/08/10 08:51:15;;;;;;;15.07;2.63;;;29.50;48.30;;;;;;4968931;28;20463;-53
2022/08/10 08:53:59;;;;;;;8.47;6.27;;;29.70;48.80;;;;;;4969452;28;20481;-53
2022/08/10 08:56:37;;;;;;;10.00;6.50;;;29.30;47.60;;;;;;4985145;28;20470;-55
2022/08/10 08:59:23;;;;;;;7.07;3.27;;;29.20;47.80;;;;;;4974508;28;20499;-53
2022/08/10 09:02:18;;;;;;;12.17;7.97;;;29.20;48.60;;;;;;4980296;28;20600;-53
2022/08/10 09:05:04;;;;;;;10.23;6.70;;;29.40;49.40;;;;;;4964713;28;21023;-53
2022/08/10 09:07:59;;;;;;;6.10;5.20;;;29.70;47.60;;;;;;4988159;28;20629;-54
2022/08/10 09:10:40;;;;;;;5.90;4.43;;;29.90;48.30;;;;;;4988970;28;24761;-53
2022/08/10 09:13:19;;;;;;;6.33;4.30;;;30.00;47.30;;;;;;4974516;28;20488;-54
2022/08/10 09:16:02;;;;;;;13.43;7.37;;;30.00;47.00;;;;;;4969896;28;20580;-54
2022/08/10 09:18:43;;;;;;;6.10;5.00;;;30.20;47.40;;;;;;4977781;28;20617;-53
2022/08/10 09:21:22;;;;;;;7.40;4.70;;;30.30;47.00;;;;;;4988952;28;20582;-53
2022/08/10 09:24:06;;;;;;;19.23;8.83;;;30.40;46.90;;;;;;4991371;28;20495;-56
2022/08/10 09:26:51;;;;;;;11.97;4.50;;;30.40;47.20;;;;;;4998948;28;20692;-54
2022/08/10 09:29:28;;;;;;;7.70;5.27;;;30.30;45.80;;;;;;4992206;28;20483;-54
2022/08/10 09:32:07;;;;;;;17.20;5.87;;;30.40;46.30;;;;;;4978194;28;21412;-53
2022/08/10 09:34:45;;;;;;;6.93;4.33;;;30.40;45.20;;;;;;4998757;28;20524;-52
2022/08/10 09:37:19;;;;;;;9.60;3.43;;;30.60;46.20;;;;;;5020592;28;20553;-53
2022/08/10 09:39:54;;;;;;;12.87;8.10;;;30.80;45.00;;;;;;4988525;28;20488;-54
2022/08/10 09:42:32;;;;;;;18.23;4.37;;;31.00;46.00;;;;;;5014798;28;20486;-53
2022/08/10 09:45:05;;;;;;;3.83;3.47;;;31.00;44.80;;;;;;5019334;28;20509;-53
2022/08/10 09:47:51;;;;;;;4.60;4.10;;;30.80;43.50;;;;;;5012619;28;20489;-54
2022/08/10 09:50:24;;;;;;;5.23;4.70;;;30.50;43.70;;;;;;4989481;28;20592;-51
2022/08/10 09:53:05;;;;;;;15.13;6.30;;;30.70;44.30;;;;;;4997348;28;20513;-52
2022/08/10 09:55:42;;;;;;;7.60;3.80;;;30.80;45.20;;;;;;4998862;28;20568;-53
2022/08/10 09:58:28;;;;;;;12.70;3.70;;;30.40;43.40;;;;;;4992824;28;20495;-52
2022/08/10 10:01:03;;;;;;;6.93;6.30;;;30.70;45.10;;;;;;4992049;28;20488;-53
2022/08/10 10:03:39;;;;;;;5.53;4.57;;;30.70;42.90;;;;;;5002514;28;20948;-52
2022/08/10 10:06:12;;;;;;;7.30;3.87;;;30.70;43.80;;;;;;4994586;28;20842;-53
2022/08/10 10:08:45;;;;;;;8.87;3.60;;;30.90;44.10;;;;;;4997040;28;20546;-53
2022/08/10 10:11:17;;;;;;;4.10;2.90;;;31.10;45.10;;;;;;4996097;28;20947;-53
2022/08/10 10:13:55;;;;;;;32.73;4.40;;;31.40;44.30;;;;;;4994226;28;20496;-53
2022/08/10 10:16:43;;;;;;;5.07;3.77;;;31.50;44.50;;;;;;4997727;28;20496;-55
2022/08/10 10:19:25;;;;;;;16.50;3.77;;;31.60;44.40;;;;;;4999456;28;21010;-54
2022/08/10 10:22:02;;;;;;;5.63;3.90;;;31.70;43.10;;;;;;4987299;28;20492;-54
2022/08/10 10:24:40;;;;;;;4.67;3.40;;;31.90;42.90;;;;;;4998580;28;20492;-54
2022/08/10 10:27:27;;;;;;;3.90;3.50;;;31.90;42.70;;;;;;4999845;28;20869;-54
2022/08/10 10:30:02;;;;;;;6.57;3.53;;;31.90;41.90;;;;;;5004157;28;20612;-55
2022/08/10 10:32:43;;;;;;;4.43;3.20;;;31.90;42.50;;;;;;5018992;28;20499;-53
2022/08/10 10:35:24;;;;;;;5.07;4.20;;;31.30;42.20;;;;;;5017784;28;20454;-53
2022/08/10 10:37:54;;;;;;;17.70;7.67;;;31.60;42.70;;;;;;4988637;28;21308;-52
2022/08/10 10:40:22;;;;;;;4.30;3.13;;;31.60;43.10;;;;;;4994428;28;20515;-56
2022/08/10 10:43:04;;;;;;;9.43;5.67;;;31.80;42.60;;;;;;5012699;28;20489;-55
2022/08/10 10:45:39;;;;;;;3.30;3.00;;;31.90;41.90;;;;;;4986374;28;21050;-56
2022/08/10 10:48:16;;;;;;;3.40;3.10;;;31.90;41.90;;;;;;5015861;28;20488;-55
2022/08/10 10:51:07;;;;;;;7.77;5.07;;;31.80;42.60;;;;;;5000188;28;20990;-51
2022/08/10 10:53:43;;;;;;;3.47;3.10;;;32.00;42.60;;;;;;4996260;28;20468;-55
2022/08/10 10:56:19;;;;;;;2.63;2.40;;;32.10;42.50;;;;;;4986218;28;21087;-53
2022/08/10 10:59:02;;;;;;;11.73;4.30;;;32.10;42.50;;;;;;5008051;28;20499;-53
2022/08/10 11:01:38;;;;;;;18.10;11.60;;;31.10;40.90;;;;;;4972475;28;20475;-52
2022/08/10 11:04:19;;;;;;;9.73;6.83;;;31.50;42.80;;;;;;4986510;28;20459;-58
2022/08/10 11:06:57;;;;;;;6.27;2.93;;;31.70;43.10;;;;;;4991447;28;20514;-56
2022/08/10 11:09:31;;;;;;;15.00;4.80;;;31.30;40.90;;;;;;4988934;28;20563;-55
2022/08/10 11:12:03;;;;;;;3.90;3.60;;;31.50;42.10;;;;;;4994145;28;20491;-54
2022/08/10 11:14:36;;;;;;;2.90;2.70;;;31.80;42.70;;;;;;4993329;28;20787;-54
2022/08/10 11:17:11;;;;;;;3.10;2.80;;;31.90;42.30;;;;;;4990533;28;20534;-54
2022/08/10 11:19:45;;;;;;;5.40;3.30;;;32.10;42.40;;;;;;5010996;28;20498;-57
2022/08/10 11:22:22;;;;;;;12.43;3.00;;;32.30;42.60;;;;;;5009865;28;20527;-56
2022/08/10 11:24:56;;;;;;;5.77;5.27;;;31.80;41.10;;;;;;5008222;28;20487;-55
2022/08/10 11:27:36;;;;;;;13.23;3.17;;;32.10;41.70;;;;;;4993224;28;20534;-53
2022/08/10 11:30:07;;;;;;;3.70;2.13;;;32.30;42.70;;;;;;4989793;28;20527;-53
2022/08/10 11:32:47;;;;;;;8.47;2.57;;;32.50;41.60;;;;;;4996160;28;20470;-54
2022/08/10 11:35:25;;;;;;;2.87;2.00;;;32.70;41.70;;;;;;4999377;28;20528;-53
2022/08/10 11:38:00;;;;;;;16.57;2.53;;;32.90;41.80;;;;;;4990789;28;20834;-55
2022/08/10 11:40:35;;;;;;;3.30;2.47;;;32.80;41.00;;;;;;4979495;28;20594;-54
2022/08/10 11:43:10;;;;;;;4.57;3.20;;;32.80;40.90;;;;;;4990847;28;20463;-59
2022/08/10 11:45:41;;;;;;;7.90;3.93;;;32.70;40.80;;;;;;4988862;28;20562;-56
2022/08/10 11:48:16;;;;;;;3.00;2.70;;;32.70;41.20;;;;;;4991761;28;21052;-54
2022/08/10 11:50:49;;;;;;;6.77;2.20;;;32.80;41.40;;;;;;4987975;28;20581;-59
2022/08/10 11:53:22;;;;;;;7.30;2.80;;;32.80;40.80;;;;;;4989534;28;20547;-58
2022/08/10 11:55:54;;;;;;;4.50;3.00;;;32.80;40.80;;;;;;4990075;28;20470;-55
2022/08/10 12:01:11;;;;;;;2.97;2.67;;;33.10;41.20;;;;;;4990097;28;21087;-56
2022/08/10 12:03:41;;;;;;;4.60;2.90;;;33.00;41.50;;;;;;4992383;28;20868;-54
2022/08/10 12:06:13;;;;;;;2.40;2.10;;;32.70;40.30;;;;;;4989758;28;20897;-54
2022/08/10 12:08:43;;;;;;;5.43;3.50;;;32.70;41.70;;;;;;4991781;28;20559;-54
2022/08/10 12:11:14;;;;;;;2.77;2.57;;;32.80;41.80;;;;;;4990073;28;21182;-55
2022/08/10 12:13:46;;;;;;;3.97;2.00;;;32.80;41.60;;;;;;4995287;28;20530;-56
2022/08/10 12:16:16;;;;;;;4.67;2.70;;;32.90;41.30;;;;;;4992042;28;20586;-55
2022/08/10 12:18:46;;;;;;;4.77;2.27;;;32.40;40.60;;;;;;4986086;28;20840;-54
2022/08/10 12:21:18;;;;;;;7.87;2.70;;;32.70;41.70;;;;;;4986693;28;20470;-54
2022/08/10 12:23:51;;;;;;;3.90;3.57;;;;;;;;;;4996293;28;20841;-54
2022/08/10 12:26:22;;;;;;;2.87;2.67;;;32.60;41.20;;;;;;4966806;28;20524;-54
2022/08/10 12:28:56;;;;;;;3.60;3.30;;;31.90;40.60;;;;;;4999913;28;21309;-56
2022/08/10 12:31:29;;;;;;;13.53;3.20;;;32.40;40.90;;;;;;5002015;28;20466;-55
2022/08/10 12:34:18;;;;;;;2.87;2.50;;;32.60;41.20;;;;;;4997272;28;20497;-54
2022/08/10 12:36:54;;;;;;;11.20;2.63;;;32.80;40.70;;;;;;4983478;28;20470;-56
2022/08/10 12:39:27;;;;;;;3.10;2.23;;;33.00;40.90;;;;;;4994496;28;20450;-55
2022/08/10 12:41:59;;;;;;;10.63;2.83;;;33.10;40.70;;;;;;4992589;28;20940;-55
2022/08/10 12:44:32;;;;;;;5.23;2.60;;;33.10;40.00;;;;;;4989068;28;20580;-55
2022/08/10 12:47:06;;;;;;;2.67;2.47;;;33.20;40.10;;;;;;4993531;28;21177;-59
2022/08/10 12:49:40;;;;;;;3.27;2.43;;;33.40;41.90;;;;;;4988499;28;20614;-54
2022/08/10 12:52:16;;;;;;;3.40;2.90;;;33.40;40.60;;;;;;4998001;28;20981;-55
2022/08/10 12:54:45;;;;;;;3.93;2.53;;;33.50;40.90;;;;;;5002752;28;20555;-55
2022/08/10 12:57:15;;;;;;;2.87;2.40;;;33.50;41.00;;;;;;5009609;28;20561;-55
2022/08/10 12:59:44;;;;;;;38.70;3.67;;;33.70;40.30;;;;;;4997616;28;20485;-55
2022/08/10 13:02:18;;;;;;;4.40;2.40;;;33.70;40.30;;;;;;5004175;28;20461;-54
2022/08/10 13:04:49;;;;;;;3.10;2.80;;;33.20;39.20;;;;;;4993413;28;20467;-55
2022/08/10 13:07:23;;;;;;;3.83;2.93;;;33.30;40.50;;;;;;4987617;28;20467;-55
2022/08/10 13:09:52;;;;;;;5.70;2.73;;;33.40;40.50;;;;;;4984873;28;20597;-54
2022/08/10 13:12:21;;;;;;;11.87;3.10;;;33.70;40.30;;;;;;4995586;28;21091;-57